Time;durP1;ratioP1;P1;durP2;ratioP2;P2;SDS_P1;SDS_P2;PMS_P1;PMS_P2;Temp;Humidity;BMP_temperature;BMP_pressure;BME280_temperature;BME280_humidity;BME280_pressure;Samples;Min_cycle;Max_cycle;Signal;HPM_P1;HPM_P2
2023/12/04 00:00:39;;;;;;;25.00;11.80;;;;;;;;;;4985116;28;20812;-80
2023/12/04 00:03:05;;;;;;;20.05;11.68;;;;;;;;;;4984676;28;20200;-79
2023/12/04 00:05:30;;;;;;;23.13;11.50;;;;;;;;;;4984530;28;20240;-79
2023/12/04 00:07:56;;;;;;;17.57;11.80;;;;;;;;;;4984913;28;20459;-80
2023/12/04 00:10:22;;;;;;;19.50;11.80;;;;;;;;;;4985077;28;20431;-80
2023/12/04 00:12:48;;;;;;;21.65;10.77;;;;;;;;;;4985029;28;20416;-79
2023/12/04 00:15:14;;;;;;;18.83;11.65;;;;;;;;;;4984348;28;20239;-80
2023/12/04 00:17:40;;;;;;;19.20;11.43;;;;;;;;;;4984443;28;20191;-80
2023/12/04 00:20:08;;;;;;;21.00;11.20;;;;;;;;;;4984034;28;20275;-80
2023/12/04 00:22:34;;;;;;;18.73;11.68;;;;;;;;;;4983641;28;20409;-80
2023/12/04 00:25:00;;;;;;;17.40;9.77;;;;;;;;;;4983977;28;20196;-80
2023/12/04 00:27:26;;;;;;;16.85;10.52;;;;;;;;;;4984644;28;20471;-80
2023/12/04 00:29:55;;;;;;;18.73;10.80;;;;;;;;;;4983399;28;20239;-80
2023/12/04 00:32:21;;;;;;;19.42;10.48;;;;;;;;;;4984234;28;20628;-80
2023/12/04 00:34:47;;;;;;;23.07;13.03;;;;;;;;;;4983962;28;20180;-80
2023/12/04 00:37:13;;;;;;;18.05;10.35;;;;;;;;;;4984463;28;20420;-80
2023/12/04 00:39:39;;;;;;;18.20;9.90;;;;;;;;;;4984294;28;20529;-80
2023/12/04 00:42:05;;;;;;;18.50;10.35;;;;;;;;;;4984031;28;20408;-80
2023/12/04 00:44:32;;;;;;;16.90;10.85;;;;;;;;;;4984204;28;20203;-80
2023/12/04 00:46:58;;;;;;;16.75;10.18;;;;;;;;;;4983644;28;20208;-80
2023/12/04 00:49:24;;;;;;;17.13;10.35;;;;;;;;;;4983834;28;20207;-80
2023/12/04 00:51:50;;;;;;;21.58;11.20;;;;;;;;;;4983386;28;20191;-80
2023/12/04 00:54:16;;;;;;;20.42;11.07;;;;;;;;;;4983577;28;20204;-80
2023/12/04 00:56:42;;;;;;;16.70;10.73;;;;;;;;;;4983178;28;20212;-80
2023/12/04 00:59:11;;;;;;;17.02;10.50;;;;;;;;;;4983615;28;20430;-80
2023/12/04 01:01:37;;;;;;;15.80;10.23;;;;;;;;;;4983549;28;20180;-80
2023/12/04 01:04:04;;;;;;;23.13;10.90;;;;;;;;;;4983861;28;20176;-81
2023/12/04 01:06:30;;;;;;;20.13;10.38;;;;;;;;;;4983099;28;20208;-80
2023/12/04 01:08:56;;;;;;;17.23;10.27;;;;;;;;;;4983780;28;20192;-81
2023/12/04 01:11:23;;;;;;;15.68;11.48;;;;;;;;;;4982845;28;20536;-80
2023/12/04 01:13:49;;;;;;;17.70;9.52;;;;;;;;;;4983890;28;20187;-80
2023/12/04 01:16:15;;;;;;;15.93;9.45;;;;;;;;;;4981841;28;20660;-80
2023/12/04 01:18:41;;;;;;;17.00;10.00;;;;;;;;;;4983611;28;20189;-80
2023/12/04 01:21:11;;;;;;;18.30;10.48;;;;;;;;;;4983444;28;20212;-80
2023/12/04 01:23:37;;;;;;;18.30;10.77;;;;;;;;;;4983714;28;20243;-80
2023/12/04 01:26:04;;;;;;;16.48;11.30;;;;;;;;;;4983296;28;20620;-80
2023/12/04 01:28:30;;;;;;;16.00;10.38;;;;;;;;;;4983939;28;20213;-80
2023/12/04 01:30:56;;;;;;;15.77;8.93;;;;;;;;;;4983448;28;20644;-80
2023/12/04 01:33:22;;;;;;;15.87;10.33;;;;;;;;;;4982842;28;20452;-80
2023/12/04 01:35:47;;;;;;;14.10;7.97;;;;;;;;;;4983127;28;20404;-80
2023/12/04 01:38:13;;;;;;;16.23;9.60;;;;;;;;;;4982574;28;20187;-80
2023/12/04 01:40:39;;;;;;;15.37;8.50;;;;;;;;;;4983279;28;20423;-80
2023/12/04 01:43:06;;;;;;;16.25;10.18;;;;;;;;;;4983644;28;20411;-80
2023/12/04 01:45:32;;;;;;;16.40;8.85;;;;;;;;;;4983846;28;20183;-80
2023/12/04 01:47:58;;;;;;;12.90;8.63;;;;;;;;;;4982961;28;20702;-80
2023/12/04 01:50:25;;;;;;;14.68;9.65;;;;;;;;;;4982727;28;20188;-80
2023/12/04 01:52:52;;;;;;;13.95;8.55;;;;;;;;;;4982706;28;20675;-80
2023/12/04 01:55:18;;;;;;;9.57;6.22;;;;;;;;;;4983063;28;20180;-79
2023/12/04 01:57:44;;;;;;;20.75;8.30;;;;;;;;;;4983524;28;20577;-79
2023/12/04 02:00:12;;;;;;;12.80;8.13;;;;;;;;;;4982177;28;20607;-80
2023/12/04 02:02:42;;;;;;;13.43;8.10;;;;;;;;;;4984161;28;20180;-79
2023/12/04 02:05:09;;;;;;;19.30;8.90;;;;;;;;;;4982937;28;20186;-79
2023/12/04 02:07:38;;;;;;;14.63;9.40;;;;;;;;;;4983086;28;20219;-80
2023/12/04 02:10:04;;;;;;;15.85;8.02;;;;;;;;;;4982885;28;20184;-79
2023/12/04 02:12:30;;;;;;;12.13;8.20;;;;;;;;;;4983479;28;20203;-79
2023/12/04 02:14:57;;;;;;;11.18;7.80;;;;;;;;;;4982244;28;20715;-81
2023/12/04 02:17:23;;;;;;;11.68;8.35;;;;;;;;;;4983424;28;20188;-79
2023/12/04 02:19:49;;;;;;;16.20;9.63;;;;;;;;;;4982258;28;20212;-79
2023/12/04 02:22:17;;;;;;;10.68;7.18;;;;;;;;;;4983049;28;20231;-79
2023/12/04 02:24:43;;;;;;;15.98;8.90;;;;;;;;;;4983343;28;20576;-79
2023/12/04 02:27:29;;;;;;;13.52;8.57;;;;;;;;;;4983307;28;20232;-79
2023/12/04 02:30:01;;;;;;;11.65;7.95;;;;;;;;;;4982561;28;20629;-79
2023/12/04 02:32:31;;;;;;;13.50;8.20;;;;;;;;;;4983740;28;20699;-79
2023/12/04 02:34:58;;;;;;;11.65;7.00;;;;;;;;;;4983328;28;20179;-81
2023/12/04 02:37:24;;;;;;;11.02;7.88;;;;;;;;;;4983353;28;20228;-79
2023/12/04 02:39:54;;;;;;;12.55;8.00;;;;;;;;;;4983278;28;20175;-79
2023/12/04 02:42:20;;;;;;;13.70;7.78;;;;;;;;;;4982947;28;20185;-79
2023/12/04 02:44:47;;;;;;;15.90;9.43;;;;;;;;;;4983394;28;20180;-79
2023/12/04 02:47:13;;;;;;;14.40;8.90;;;;;;;;;;4983744;28;20184;-79
2023/12/04 02:49:39;;;;;;;12.52;7.45;;;;;;;;;;4983831;28;20184;-79
2023/12/04 02:52:05;;;;;;;14.80;7.93;;;;;;;;;;4983406;28;20204;-79
2023/12/04 02:54:31;;;;;;;12.55;8.65;;;;;;;;;;4983009;28;20440;-79
2023/12/04 02:56:57;;;;;;;14.30;9.23;;;;;;;;;;4982993;28;20176;-79
2023/12/04 02:59:23;;;;;;;13.40;8.77;;;;;;;;;;4984088;28;20427;-79
2023/12/04 03:01:49;;;;;;;16.23;8.07;;;;;;;;;;4985954;28;20428;-79
2023/12/04 03:04:14;;;;;;;12.25;7.85;;;;;;;;;;4987280;28;20403;-79
2023/12/04 03:06:40;;;;;;;14.80;8.88;;;;;;;;;;4987203;28;20187;-79
2023/12/04 03:09:07;;;;;;;13.27;8.60;;;;;;;;;;4986715;28;20215;-80
2023/12/04 03:11:33;;;;;;;14.73;8.43;;;;;;;;;;4986688;28;20188;-79
2023/12/04 03:14:01;;;;;;;12.75;7.68;;;;;;;;;;4986834;28;20176;-79
2023/12/04 03:16:27;;;;;;;19.80;8.73;;;;;;;;;;4985905;28;20180;-79
2023/12/04 03:18:53;;;;;;;14.07;9.00;;;;;;;;;;4985522;28;20188;-78
2023/12/04 03:21:19;;;;;;;14.63;8.90;;;;;;;;;;4985366;28;20564;-79
2023/12/04 03:23:45;;;;;;;13.00;8.77;;;;;;;;;;4986345;28;20459;-79
2023/12/04 03:26:11;;;;;;;13.23;7.43;;;;;;;;;;4985966;28;20648;-79
2023/12/04 03:28:39;;;;;;;13.15;8.15;;;;;;;;;;4986175;28;20491;-79
2023/12/04 03:31:06;;;;;;;17.27;9.00;;;;;;;;;;4985987;28;20177;-79
2023/12/04 03:33:32;;;;;;;13.15;8.70;;;;;;;;;;4986376;28;20180;-79
2023/12/04 03:35:59;;;;;;;12.77;8.52;;;;;;;;;;5002273;28;20211;-78
2023/12/04 03:38:25;;;;;;;12.38;8.35;;;;;;;;;;4986214;28;20550;-79
2023/12/04 03:40:51;;;;;;;13.80;9.10;;;;;;;;;;4986555;28;20175;-79
2023/12/04 03:43:17;;;;;;;15.32;8.73;;;;;;;;;;4986708;28;20431;-79
2023/12/04 03:45:43;;;;;;;15.32;8.77;;;;;;;;;;4986955;28;20172;-78
2023/12/04 03:48:09;;;;;;;13.50;7.50;;;;;;;;;;4985050;28;20220;-80
2023/12/04 03:50:35;;;;;;;11.10;6.95;;;;;;;;;;4985806;28;20654;-79
2023/12/04 03:53:01;;;;;;;14.80;8.40;;;;;;;;;;4986682;28;20176;-79
2023/12/04 03:55:27;;;;;;;15.03;8.67;;;;;;;;;;4986308;28;20408;-78
2023/12/04 03:57:53;;;;;;;18.30;9.90;;;;;;;;;;4986857;28;20837;-79
2023/12/04 04:00:19;;;;;;;13.85;9.45;;;;;;;;;;4986087;28;20416;-79
2023/12/04 04:02:46;;;;;;;13.30;8.70;;;;;;;;;;4986396;28;20188;-78
2023/12/04 04:05:12;;;;;;;14.43;8.95;;;;;;;;;;4986008;28;20237;-79
2023/12/04 04:07:38;;;;;;;13.40;8.32;;;;;;;;;;4985225;28;20263;-79
2023/12/04 04:10:04;;;;;;;17.40;10.02;;;;;;;;;;4985465;28;20176;-80
2023/12/04 04:12:30;;;;;;;14.90;9.18;;;;;;;;;;4984794;28;20204;-78
2023/12/04 04:14:56;;;;;;;13.38;8.35;;;;;;;;;;4985573;28;20224;-78
2023/12/04 04:17:25;;;;;;;15.30;9.50;;;;;;;;;;4985685;28;20181;-79
2023/12/04 04:19:51;;;;;;;15.85;9.27;;;;;;;;;;4985479;28;20544;-79
2023/12/04 04:22:17;;;;;;;18.00;9.63;;;;;;;;;;4985707;28;20206;-79
2023/12/04 04:24:43;;;;;;;17.90;8.90;;;;;;;;;;4985339;28;20191;-79
2023/12/04 04:27:09;;;;;;;17.90;9.40;;;;;;;;;;4985094;28;20471;-79
2023/12/04 04:29:35;;;;;;;14.00;9.00;;;;;;;;;;4985506;28;20526;-79
2023/12/04 04:32:01;;;;;;;18.30;9.68;;;;;;;;;;4985456;28;20909;-79
2023/12/04 04:34:27;;;;;;;12.63;8.30;;;;;;;;;;4985156;28;20235;-78
2023/12/04 04:36:53;;;;;;;14.40;9.20;;;;;;;;;;4984258;28;20404;-78
2023/12/04 04:39:19;;;;;;;17.73;10.82;;;;;;;;;;4985238;28;20403;-78
2023/12/04 04:41:45;;;;;;;16.60;10.00;;;;;;;;;;4984526;28;20188;-78
2023/12/04 04:44:11;;;;;;;15.40;9.52;;;;;;;;;;4984916;28;20493;-79
2023/12/04 04:46:37;;;;;;;13.25;8.85;;;;;;;;;;4985067;28;20215;-78
2023/12/04 04:49:06;;;;;;;15.85;9.98;;;;;;;;;;4985363;28;20192;-78
2023/12/04 04:51:33;;;;;;;16.55;10.50;;;;;;;;;;4985170;28;20207;-78
2023/12/04 04:53:59;;;;;;;13.82;9.02;;;;;;;;;;4984548;28;20203;-80
2023/12/04 04:56:25;;;;;;;14.60;9.03;;;;;;;;;;4984364;28;20224;-78
2023/12/04 04:58:51;;;;;;;13.60;8.40;;;;;;;;;;4985040;28;20422;-79
2023/12/04 05:01:17;;;;;;;17.05;10.25;;;;;;;;;;4984787;28;20460;-78
2023/12/04 05:03:43;;;;;;;14.18;8.65;;;;;;;;;;4985284;28;20195;-78
2023/12/04 05:06:09;;;;;;;11.98;8.50;;;;;;;;;;4984464;28;20183;-79
2023/12/04 05:08:35;;;;;;;15.07;8.70;;;;;;;;;;4983911;28;20200;-78
2023/12/04 05:11:01;;;;;;;15.52;9.40;;;;;;;;;;4985102;28;20189;-78
2023/12/04 05:13:27;;;;;;;16.70;10.23;;;;;;;;;;4985107;28;20326;-78
2023/12/04 05:15:53;;;;;;;19.58;11.45;;;;;;;;;;4985220;28;20444;-78
2023/12/04 05:18:18;;;;;;;15.30;8.68;;;;;;;;;;4984936;28;20284;-78
2023/12/04 05:20:45;;;;;;;18.13;10.90;;;;;;;;;;4984762;28;20180;-78
2023/12/04 05:23:11;;;;;;;14.65;8.95;;;;;;;;;;4984850;28;20408;-79
2023/12/04 05:25:37;;;;;;;15.20;10.23;;;;;;;;;;4983613;28;20186;-78
2023/12/04 05:28:04;;;;;;;14.30;10.00;;;;;;;;;;4984782;28;20479;-79
2023/12/04 05:30:30;;;;;;;16.23;10.48;;;;;;;;;;4983630;28;20187;-78
2023/12/04 05:32:55;;;;;;;17.30;10.10;;;;;;;;;;4984462;28;20227;-78
2023/12/04 05:35:21;;;;;;;18.00;10.03;;;;;;;;;;4984658;28;20189;-78
2023/12/04 05:37:48;;;;;;;17.65;9.82;;;;;;;;;;4984399;28;20947;-78
2023/12/04 05:40:14;;;;;;;14.52;9.98;;;;;;;;;;4984081;28;20207;-79
2023/12/04 05:42:40;;;;;;;17.20;9.65;;;;;;;;;;4985077;28;20289;-78
2023/12/04 05:45:07;;;;;;;17.47;10.90;;;;;;;;;;4985658;28;20180;-78
2023/12/04 05:47:34;;;;;;;18.20;10.05;;;;;;;;;;4985449;28;20411;-78
2023/12/04 05:50:00;;;;;;;18.63;10.50;;;;;;;;;;4984167;28;20697;-77
2023/12/04 05:52:26;;;;;;;17.02;9.98;;;;;;;;;;4983945;28;20203;-78
2023/12/04 05:54:52;;;;;;;15.67;9.67;;;;;;;;;;4984458;28;20220;-78
2023/12/04 05:57:18;;;;;;;15.65;9.57;;;;;;;;;;4984929;28;20427;-78
2023/12/04 05:59:44;;;;;;;13.30;9.27;;;;;;;;;;4984827;28;20194;-78
2023/12/04 06:02:10;;;;;;;20.77;9.68;;;;;;;;;;4984622;28;20206;-80
2023/12/04 06:04:36;;;;;;;19.00;11.57;;;;;;;;;;4984873;28;20179;-78
2023/12/04 06:07:02;;;;;;;18.15;10.07;;;;;;;;;;4984325;28;20188;-78
2023/12/04 06:09:28;;;;;;;16.27;9.98;;;;;;;;;;4983666;28;20216;-78
2023/12/04 06:11:54;;;;;;;18.17;10.00;;;;;;;;;;4984335;28;20194;-78
2023/12/04 06:14:20;;;;;;;19.00;11.10;;;;;;;;;;4984578;28;20247;-77
2023/12/04 06:16:47;;;;;;;15.80;10.05;;;;;;;;;;4984151;28;20406;-78
2023/12/04 06:19:13;;;;;;;16.33;10.23;;;;;;;;;;4984254;28;20184;-79
2023/12/04 06:21:39;;;;;;;15.93;10.48;;;;;;;;;;4984243;28;20183;-78
2023/12/04 06:24:05;;;;;;;14.10;9.10;;;;;;;;;;4984569;28;20176;-78
2023/12/04 06:26:32;;;;;;;15.43;10.40;;;;;;;;;;4984125;28;20876;-78
2023/12/04 06:28:58;;;;;;;20.02;11.43;;;;;;;;;;4984066;28;20216;-77
2023/12/04 06:31:24;;;;;;;16.65;9.88;;;;;;;;;;4983772;28;20240;-78
2023/12/04 06:33:50;;;;;;;15.82;10.23;;;;;;;;;;4983943;28;20185;-78
2023/12/04 06:36:18;;;;;;;14.18;9.88;;;;;;;;;;4984968;28;20188;-78
2023/12/04 06:38:46;;;;;;;18.58;11.88;;;;;;;;;;4987197;28;20551;-77
2023/12/04 06:41:12;;;;;;;17.58;9.77;;;;;;;;;;4987947;28;20223;-81
2023/12/04 06:43:39;;;;;;;14.43;10.00;;;;;;;;;;4986926;28;20188;-80
2023/12/04 06:46:05;;;;;;;15.18;10.52;;;;;;;;;;4986881;28;20183;-81
2023/12/04 06:48:32;;;;;;;17.48;11.15;;;;;;;;;;4987059;28;20257;-81
2023/12/04 06:50:58;;;;;;;18.33;11.60;;;;;;;;;;4987169;28;20176;-80
2023/12/04 06:53:24;;;;;;;16.37;11.00;;;;;;;;;;4986466;28;20187;-80
2023/12/04 06:55:50;;;;;;;23.00;12.03;;;;;;;;;;4986386;28;20867;-80
2023/12/04 06:58:16;;;;;;;17.23;12.33;;;;;;;;;;4986023;28;20431;-80
2023/12/04 07:00:41;;;;;;;18.90;11.37;;;;;;;;;;4985370;28;20445;-79
2023/12/04 07:03:07;;;;;;;20.87;12.20;;;;;;;;;;4986738;28;20443;-80
2023/12/04 07:05:33;;;;;;;18.75;10.57;;;;;;;;;;4986807;28;20908;-80
2023/12/04 07:07:59;;;;;;;18.80;11.82;;;;;;;;;;4985664;28;20296;-80
2023/12/04 07:10:25;;;;;;;21.27;11.83;;;;;;;;;;4985114;28;20190;-80
2023/12/04 07:12:51;;;;;;;18.77;11.10;;;;;;;;;;4983581;28;20440;-80
2023/12/04 07:15:17;;;;;;;14.83;10.63;;;;;;;;;;4986154;28;20412;-80
2023/12/04 07:17:43;;;;;;;19.42;11.65;;;;;;;;;;4985394;28;20420;-80
2023/12/04 07:20:11;;;;;;;19.00;11.03;;;;;;;;;;4985521;28;20211;-80
2023/12/04 07:22:37;;;;;;;16.42;9.32;;;;;;;;;;4984557;28;20430;-80
2023/12/04 07:25:03;;;;;;;15.47;10.80;;;;;;;;;;4985921;28;20181;-80
2023/12/04 07:27:29;;;;;;;19.90;10.18;;;;;;;;;;4984567;28;20466;-83
2023/12/04 07:29:55;;;;;;;18.15;11.30;;;;;;;;;;4984523;28;20185;-82
2023/12/04 07:32:21;;;;;;;15.30;10.55;;;;;;;;;;5001007;28;20178;-78
2023/12/04 07:34:47;;;;;;;17.40;10.88;;;;;;;;;;4984311;28;20177;-79
2023/12/04 07:37:13;;;;;;;12.90;10.10;;;;;;;;;;4985219;28;20176;-79
2023/12/04 07:39:39;;;;;;;18.73;9.90;;;;;;;;;;4985196;28;20418;-78
2023/12/04 07:42:05;;;;;;;15.85;10.20;;;;;;;;;;4984752;28;20188;-78
2023/12/04 07:44:31;;;;;;;16.33;9.40;;;;;;;;;;4985238;28;20186;-79
2023/12/04 07:46:57;;;;;;;16.70;9.77;;;;;;;;;;4981315;28;20936;-78
2023/12/04 07:49:23;;;;;;;18.15;11.70;;;;;;;;;;4985293;28;20482;-78
2023/12/04 07:51:49;;;;;;;11.20;7.70;;;;;;;;;;4986711;28;20188;-78
2023/12/04 07:54:15;;;;;;;18.10;10.50;;;;;;;;;;4986751;28;20174;-78
2023/12/04 07:56:42;;;;;;;18.30;11.03;;;;;;;;;;4987157;28;20407;-78
2023/12/04 07:59:09;;;;;;;16.65;10.60;;;;;;;;;;4986957;28;20419;-77
2023/12/04 08:01:35;;;;;;;13.30;9.68;;;;;;;;;;4986199;28;20193;-78
2023/12/04 08:04:02;;;;;;;15.65;8.85;;;;;;;;;;4986803;28;20172;-78
2023/12/04 08:06:28;;;;;;;19.05;10.27;;;;;;;;;;4986309;28;20168;-77
2023/12/04 08:08:55;;;;;;;18.80;10.00;;;;;;;;;;4985477;28;20207;-76
2023/12/04 08:11:21;;;;;;;11.02;7.88;;;;;;;;;;4986046;28;20423;-79
2023/12/04 08:13:47;;;;;;;18.63;10.30;;;;;;;;;;4986142;28;20181;-77
2023/12/04 08:16:14;;;;;;;15.40;9.20;;;;;;;;;;4985056;28;20431;-78
2023/12/04 08:18:41;;;;;;;14.65;9.63;;;;;;;;;;4985797;28;20511;-78
2023/12/04 08:21:07;;;;;;;15.13;8.70;;;;;;;;;;4984924;28;20531;-79
2023/12/04 08:23:33;;;;;;;12.63;8.68;;;;;;;;;;4986008;28;20187;-78
2023/12/04 08:25:59;;;;;;;17.90;9.90;;;;;;;;;;4986068;28;20181;-78
2023/12/04 08:28:25;;;;;;;15.90;9.43;;;;;;;;;;4986415;28;20557;-78
2023/12/04 08:30:51;;;;;;;16.40;9.88;;;;;;;;;;4986143;28;20704;-78
2023/12/04 08:33:18;;;;;;;15.80;10.25;;;;;;;;;;4985723;28;20181;-78
2023/12/04 08:35:44;;;;;;;16.10;10.82;;;;;;;;;;4986514;28;20168;-78
2023/12/04 08:38:10;;;;;;;14.30;9.55;;;;;;;;;;4985915;28;20191;-79
2023/12/04 08:40:36;;;;;;;15.20;9.23;;;;;;;;;;4985983;28;20554;-79
2023/12/04 08:43:03;;;;;;;17.05;11.20;;;;;;;;;;4986139;28;20423;-78
2023/12/04 08:45:30;;;;;;;15.18;10.18;;;;;;;;;;4984936;28;20239;-78
2023/12/04 08:47:56;;;;;;;21.58;12.05;;;;;;;;;;4985170;28;20208;-78
2023/12/04 08:50:22;;;;;;;21.25;11.13;;;;;;;;;;4985779;28;20211;-80
2023/12/04 08:52:48;;;;;;;20.35;11.38;;;;;;;;;;4985149;28;20650;-78
2023/12/04 08:55:14;;;;;;;19.10;11.50;;;;;;;;;;4983838;28;20191;-79
2023/12/04 08:57:40;;;;;;;19.95;10.75;;;;;;;;;;4985046;28;20407;-78
2023/12/04 09:00:08;;;;;;;15.83;10.93;;;;;;;;;;4998923;28;20184;-78
2023/12/04 09:02:34;;;;;;;21.02;12.00;;;;;;;;;;4984893;28;20415;-78
2023/12/04 09:05:00;;;;;;;20.30;11.90;;;;;;;;;;4984573;28;20200;-78
2023/12/04 09:07:26;;;;;;;13.90;9.32;;;;;;;;;;4984834;28;20629;-78
2023/12/04 09:09:52;;;;;;;14.52;9.02;;;;;;;;;;4985146;28;20184;-77
2023/12/04 09:12:18;;;;;;;18.15;11.57;;;;;;;;;;4984920;28;20227;-77
2023/12/04 09:14:44;;;;;;;16.93;10.77;;;;;;;;;;4983908;28;20184;-77
2023/12/04 09:17:10;;;;;;;14.90;10.30;;;;;;;;;;4984813;28;20439;-77
2023/12/04 09:19:36;;;;;;;15.50;10.10;;;;;;;;;;4984712;28;20431;-77
2023/12/04 09:22:02;;;;;;;15.48;11.13;;;;;;;;;;4985239;28;20593;-77
2023/12/04 09:24:30;;;;;;;14.70;10.57;;;;;;;;;;4984247;28;20212;-78
2023/12/04 09:26:56;;;;;;;14.35;10.18;;;;;;;;;;4989817;28;20303;-78
2023/12/04 09:29:23;;;;;;;20.70;11.15;;;;;;;;;;4984299;28;20220;-78
2023/12/04 09:31:50;;;;;;;20.75;11.15;;;;;;;;;;4983938;28;20188;-78
2023/12/04 09:34:16;;;;;;;14.20;9.80;;;;;;;;;;4984917;28;20180;-79
2023/12/04 09:36:43;;;;;;;13.73;10.10;;;;;;;;;;4983990;28;20275;-78
2023/12/04 09:39:10;;;;;;;11.18;8.10;;;;;;;;;;4982910;28;20205;-79
2023/12/04 09:41:36;;;;;;;14.73;9.75;;;;;;;;;;4983262;28;20187;-79
2023/12/04 09:44:03;;;;;;;13.43;9.75;;;;;;;;;;4983051;28;20190;-79
2023/12/04 09:46:29;;;;;;;17.48;10.63;;;;;;;;;;4983909;28;20185;-79
2023/12/04 09:48:55;;;;;;;12.52;8.80;;;;;;;;;;4984023;28;20291;-79
2023/12/04 09:51:22;;;;;;;15.55;10.00;;;;;;;;;;4983022;28;20192;-79
2023/12/04 09:53:48;;;;;;;18.35;11.07;;;;;;;;;;4983018;28;20183;-79
2023/12/04 09:56:17;;;;;;;20.75;11.05;;;;;;;;;;4982986;28;20177;-79
2023/12/04 09:58:44;;;;;;;12.75;8.38;;;;;;;;;;4983531;28;20196;-78
2023/12/04 10:01:10;;;;;;;15.77;9.30;;;;;;;;;;4983939;28;20549;-80
2023/12/04 10:03:37;;;;;;;15.18;8.98;;;;;;;;;;4982585;28;20207;-80
2023/12/04 10:06:04;;;;;;;16.77;9.68;;;;;;;;;;4982565;28;20520;-82
2023/12/04 10:08:30;;;;;;;15.20;9.00;;;;;;;;;;4997855;28;20192;-79
2023/12/04 10:10:56;;;;;;;15.15;9.32;;;;;;;;;;4982316;28;20195;-78
2023/12/04 10:13:23;;;;;;;13.77;9.05;;;;;;;;;;4983864;28;20246;-78
2023/12/04 10:15:49;;;;;;;17.08;9.98;;;;;;;;;;4983715;28;20219;-79
2023/12/04 10:18:26;;;;;;;14.35;10.02;;;;;;;;;;4983258;28;20180;-78
2023/12/04 10:20:54;;;;;;;14.10;8.50;;;;;;;;;;4983467;28;20641;-78
2023/12/04 10:23:20;;;;;;;17.42;10.10;;;;;;;;;;4982348;28;20236;-79
2023/12/04 10:25:46;;;;;;;12.15;8.65;;;;;;;;;;4983873;28;20215;-78
2023/12/04 10:28:15;;;;;;;15.03;9.57;;;;;;;;;;4983387;28;20707;-78
2023/12/04 10:30:41;;;;;;;14.25;8.95;;;;;;;;;;4983766;28;20532;-78
2023/12/04 10:33:07;;;;;;;11.85;8.02;;;;;;;;;;4983662;28;20210;-78
2023/12/04 10:35:37;;;;;;;18.33;8.90;;;;;;;;;;4983497;28;20170;-78
2023/12/04 10:38:03;;;;;;;15.93;10.07;;;;;;;;;;4983686;28;20176;-78
2023/12/04 10:40:33;;;;;;;16.27;9.70;;;;;;;;;;4982977;28;20184;-78
2023/12/04 10:43:14;;;;;;;16.15;10.93;;;;;;;;;;4982900;28;20185;-79
2023/12/04 10:45:41;;;;;;;13.65;9.65;;;;;;;;;;4982473;28;20204;-79
2023/12/04 10:48:08;;;;;;;13.88;8.68;;;;;;;;;;4983207;28;20216;-79
2023/12/04 10:50:35;;;;;;;15.98;10.35;;;;;;;;;;4981325;28;20287;-79
2023/12/04 10:53:04;;;;;;;24.17;12.68;;;;;;;;;;4983114;28;20566;-79
2023/12/04 10:55:34;;;;;;;15.88;10.32;;;;;;;;;;4981151;28;20207;-79
2023/12/04 10:58:03;;;;;;;17.35;9.43;;;;;;;;;;4987796;28;20613;-79
2023/12/04 11:00:30;;;;;;;15.75;9.55;;;;;;;;;;4981367;28;20241;-79
2023/12/04 11:02:56;;;;;;;14.43;9.05;;;;;;;;;;4981410;28;20183;-79
2023/12/04 11:05:24;;;;;;;14.05;8.70;;;;;;;;;;4981595;28;20177;-79
2023/12/04 11:08:01;;;;;;;13.48;8.45;;;;;;;;;;4981185;28;20628;-80
2023/12/04 11:10:28;;;;;;;15.02;9.57;;;;;;;;;;4981134;28;20180;-80
2023/12/04 11:12:58;;;;;;;12.57;8.43;;;;;;;;;;4980919;28;20181;-80
2023/12/04 11:15:25;;;;;;;16.38;10.30;;;;;;;;;;4980951;28;20191;-80
2023/12/04 11:17:55;;;;;;;17.38;9.73;;;;;;;;;;4979691;28;20251;-80
2023/12/04 11:20:22;;;;;;;17.42;11.32;;;;;;;;;;4981004;28;20195;-80
2023/12/04 11:22:49;;;;;;;15.27;10.35;;;;;;;;;;4982490;28;20184;-81
2023/12/04 11:25:15;;;;;;;19.75;11.05;;;;;;;;;;4983707;28;20184;-81
2023/12/04 11:27:42;;;;;;;19.65;11.50;;;;;;;;;;4983371;28;20236;-83
2023/12/04 11:30:09;;;;;;;16.50;11.27;;;;;;;;;;4983605;28;20250;-82
2023/12/04 11:32:45;;;;;;;21.90;12.57;;;;;;;;;;4983406;28;20184;-81
2023/12/04 11:35:17;;;;;;;18.08;11.38;;;;;;;;;;4983686;28;20226;-82
2023/12/04 11:37:43;;;;;;;21.08;11.95;;;;;;;;;;4982583;28;20233;-82
2023/12/04 11:40:11;;;;;;;24.92;13.55;;;;;;;;;;4982396;28;20173;-82
2023/12/04 11:42:39;;;;;;;17.88;12.05;;;;;;;;;;4982837;28;20172;-82
2023/12/04 11:45:05;;;;;;;23.90;11.75;;;;;;;;;;4983291;28;20236;-82
2023/12/04 11:47:34;;;;;;;23.30;11.95;;;;;;;;;;4982975;28;20275;-81
2023/12/04 11:50:00;;;;;;;20.42;11.75;;;;;;;;;;4983945;28;20190;-80
2023/12/04 11:52:34;;;;;;;22.55;11.88;;;;;;;;;;4981606;28;20186;-81
2023/12/04 11:55:05;;;;;;;14.15;10.65;;;;;;;;;;4981183;28;20264;-81
2023/12/04 11:57:35;;;;;;;21.50;11.52;;;;;;;;;;4982253;28;20181;-82
2023/12/04 12:00:11;;;;;;;19.63;12.50;;;;;;;;;;4982007;28;20188;-82
2023/12/04 12:02:39;;;;;;;20.63;12.00;;;;;;;;;;4982072;28;20172;-81
2023/12/04 12:05:06;;;;;;;24.30;12.90;;;;;;;;;;4982566;28;20172;-82
2023/12/04 12:07:33;;;;;;;18.90;12.82;;;;;;;;;;4981676;28;20179;-84
2023/12/04 12:09:59;;;;;;;25.00;14.63;;;;;;;;;;4980703;28;20637;-81
2023/12/04 12:12:27;;;;;;;19.88;13.52;;;;;;;;;;4997919;28;20330;-81
2023/12/04 12:14:52;;;;;;;19.73;13.32;;;;;;;;;;4982736;28;20173;-82
2023/12/04 12:17:19;;;;;;;24.90;12.02;;;;;;;;;;4983666;28;20708;-82
2023/12/04 12:19:45;;;;;;;18.70;11.35;;;;;;;;;;4983761;28;20193;-82
2023/12/04 12:22:12;;;;;;;19.10;10.83;;;;;;;;;;4983231;28;20178;-82
2023/12/04 12:24:38;;;;;;;21.83;13.48;;;;;;;;;;4983708;28;20412;-81
2023/12/04 12:27:05;;;;;;;19.10;12.30;;;;;;;;;;4983930;28;20228;-81
2023/12/04 12:29:30;;;;;;;24.08;13.32;;;;;;;;;;4983905;28;20225;-81
2023/12/04 12:31:57;;;;;;;22.48;12.70;;;;;;;;;;4983424;28;20180;-82
2023/12/04 12:34:23;;;;;;;18.23;11.73;;;;;;;;;;4982167;28;20196;-83
2023/12/04 12:36:49;;;;;;;18.25;11.77;;;;;;;;;;4997540;28;20596;-83
2023/12/04 12:39:15;;;;;;;20.70;11.05;;;;;;;;;;4982352;28;20204;-83
2023/12/04 12:41:48;;;;;;;15.48;11.15;;;;;;;;;;4980873;28;20661;-82
2023/12/04 12:44:14;;;;;;;17.98;11.15;;;;;;;;;;4981874;28;20676;-81
2023/12/04 12:46:41;;;;;;;14.85;8.45;;;;;;;;;;4983204;28;20193;-82
2023/12/04 12:49:07;;;;;;;15.82;9.88;;;;;;;;;;4985346;28;20203;-83
2023/12/04 12:51:33;;;;;;;15.65;9.65;;;;;;;;;;4984033;28;20225;-81
2023/12/04 12:53:59;;;;;;;16.65;11.00;;;;;;;;;;4983460;28;20173;-81
2023/12/04 12:56:28;;;;;;;18.13;11.00;;;;;;;;;;4984250;28;20223;-81
2023/12/04 12:58:54;;;;;;;16.92;9.95;;;;;;;;;;4983638;28;20187;-81
2023/12/04 13:01:25;;;;;;;15.27;9.23;;;;;;;;;;4983389;28;20173;-81
2023/12/04 13:03:51;;;;;;;14.65;11.52;;;;;;;;;;4984035;28;20226;-81
2023/12/04 13:06:17;;;;;;;16.57;9.37;;;;;;;;;;4983738;28;20185;-81
2023/12/04 13:08:44;;;;;;;15.52;9.60;;;;;;;;;;4998240;28;20475;-81
2023/12/04 13:11:10;;;;;;;17.48;9.50;;;;;;;;;;4983830;28;20208;-81
2023/12/04 13:13:36;;;;;;;14.50;9.50;;;;;;;;;;4982559;28;20192;-81
2023/12/04 13:16:02;;;;;;;16.30;11.00;;;;;;;;;;4983325;28;20504;-81
2023/12/04 13:18:28;;;;;;;24.00;10.25;;;;;;;;;;4982908;28;20421;-82
2023/12/04 13:20:54;;;;;;;14.98;9.85;;;;;;;;;;4982813;28;20188;-81
2023/12/04 13:23:20;;;;;;;16.00;9.83;;;;;;;;;;4983187;28;20184;-81
2023/12/04 13:25:46;;;;;;;16.33;10.03;;;;;;;;;;4982881;28;20455;-83
2023/12/04 13:28:13;;;;;;;20.00;10.80;;;;;;;;;;4982644;28;20485;-83
2023/12/04 13:30:39;;;;;;;17.80;9.70;;;;;;;;;;4983028;28;20489;-81
2023/12/04 13:33:05;;;;;;;14.83;10.27;;;;;;;;;;4982932;28;20176;-81
2023/12/04 13:35:31;;;;;;;13.37;8.70;;;;;;;;;;4982400;28;20420;-82
2023/12/04 13:37:59;;;;;;;15.70;9.67;;;;;;;;;;4982480;28;20842;-81
2023/12/04 13:40:28;;;;;;;14.77;9.90;;;;;;;;;;4982276;28;20434;-81
2023/12/04 13:45:39;;;;;;;16.52;9.90;;;;;;;;;;4982090;28;20217;-82
2023/12/04 13:48:05;;;;;;;15.45;9.57;;;;;;;;;;4983323;28;20214;-82
2023/12/04 13:50:31;;;;;;;13.20;9.13;;;;;;;;;;4982621;28;20201;-82
2023/12/04 13:52:57;;;;;;;12.67;8.57;;;;;;;;;;4998027;28;20246;-80
2023/12/04 13:55:46;;;;;;;15.02;9.32;;;;;;;;;;4983001;28;20412;-81
2023/12/04 13:58:37;;;;;;;14.90;9.90;;;;;;;;;;4982260;28;20664;-81
2023/12/04 14:01:00;;;;;;;14.13;9.25;;;;;;;;;;4994214;28;20197;-81
2023/12/04 14:03:27;;;;;;;15.63;9.77;;;;;;;;;;4980952;28;20176;-82
2023/12/04 14:05:54;;;;;;;13.90;8.30;;;;;;;;;;4981773;28;20182;-82
2023/12/04 14:08:20;;;;;;;14.80;9.63;;;;;;;;;;4982153;28;20210;-81
2023/12/04 14:10:46;;;;;;;14.60;9.40;;;;;;;;;;4981793;28;20263;-81
2023/12/04 14:13:12;;;;;;;16.23;9.90;;;;;;;;;;4981978;28;20413;-81
2023/12/04 14:15:39;;;;;;;14.80;8.48;;;;;;;;;;4982709;28;20816;-83
2023/12/04 14:18:05;;;;;;;14.32;9.20;;;;;;;;;;4981525;28;20638;-81
2023/12/04 14:20:31;;;;;;;13.67;8.20;;;;;;;;;;4980806;28;20181;-82
2023/12/04 14:22:57;;;;;;;15.93;8.88;;;;;;;;;;4982142;28;20829;-81